Time;durP1;ratioP1;P1;durP2;ratioP2;P2;SDS_P1;SDS_P2;PMS_P1;PMS_P2;Temp;Humidity;BMP_temperature;BMP_pressure;BME280_temperature;BME280_humidity;BME280_pressure;Samples;Min_cycle;Max_cycle;Signal;HPM_P1;HPM_P2
2024/01/17 00:02:09;;;;;;;5.20;2.40;;;;;;;;;;10585728;27;20416;-75
2024/01/17 00:07:12;;;;;;;2.80;0.87;;;;;;;;;;10587571;27;20190;-75
2024/01/17 00:12:16;;;;;;;1.33;1.17;;;;;;;;;;10580535;27;20047;-75
2024/01/17 00:17:19;;;;;;;3.57;2.03;;;;;;;;;;10588003;27;20046;-76
2024/01/17 00:22:22;;;;;;;3.70;1.80;;;;;;;;;;10585996;27;20051;-76
2024/01/17 00:27:26;;;;;;;3.50;1.60;;;;;;;;;;10588494;27;20134;-74
2024/01/17 00:32:31;;;;;;;8.47;3.00;;;;;;;;;;10585756;27;20036;-74
2024/01/17 00:37:34;;;;;;;4.80;1.87;;;;;;;;;;10586370;27;20047;-75
2024/01/17 00:42:40;;;;;;;6.93;2.97;;;;;;;;;;10586919;27;20055;-76
2024/01/17 00:47:45;;;;;;;4.63;2.43;;;;;;;;;;10578889;27;20048;-75
2024/01/17 00:52:48;;;;;;;3.00;1.00;;;;;;;;;;10574384;27;20134;-73
2024/01/17 00:57:52;;;;;;;1.90;1.70;;;;;;;;;;10579547;27;20043;-75
2024/01/17 01:02:55;;;;;;;7.28;1.98;;;;;;;;;;10572131;27;20069;-75
2024/01/17 01:07:57;;;;;;;7.83;3.13;;;;;;;;;;10578737;27;20058;-75
2024/01/17 01:13:01;;;;;;;8.17;2.50;;;;;;;;;;10575238;27;20519;-75
2024/01/17 01:18:04;;;;;;;6.18;2.55;;;;;;;;;;10575415;27;20129;-75
2024/01/17 01:23:08;;;;;;;3.83;2.22;;;;;;;;;;10577645;27;20425;-75
2024/01/17 01:28:12;;;;;;;3.07;1.53;;;;;;;;;;10583398;27;20237;-74
2024/01/17 01:33:15;;;;;;;4.10;2.25;;;;;;;;;;10575417;27;20066;-76
2024/01/17 01:38:18;;;;;;;4.60;1.87;;;;;;;;;;10580724;27;20050;-75
2024/01/17 01:43:22;;;;;;;7.47;3.13;;;;;;;;;;10574046;27;20115;-75
2024/01/17 01:48:25;;;;;;;1.37;1.10;;;;;;;;;;10576231;27;20039;-75
2024/01/17 01:53:30;;;;;;;8.45;3.40;;;;;;;;;;10574690;27;20046;-75
2024/01/17 01:58:33;;;;;;;;;;;;;;;;;;10581954;27;20166;-75
2024/01/17 02:03:38;;;;;;;4.77;2.00;;;;;;;;;;10581048;27;20512;-75
2024/01/17 02:08:40;;;;;;;0.77;0.57;;;;;;;;;;10576857;27;20055;-75
2024/01/17 02:13:44;;;;;;;6.80;1.57;;;;;;;;;;10576708;27;20043;-76
2024/01/17 02:18:48;;;;;;;5.78;2.20;;;;;;;;;;10576616;27;20043;-76
2024/01/17 02:23:53;;;;;;;4.30;2.03;;;;;;;;;;10575875;27;20062;-75
2024/01/17 02:28:56;;;;;;;6.77;1.43;;;;;;;;;;10571832;27;20046;-74
2024/01/17 02:33:59;;;;;;;7.33;1.90;;;;;;;;;;10574169;27;22059;-76
2024/01/17 02:39:04;;;;;;;5.23;2.30;;;;;;;;;;10576314;27;20048;-75
2024/01/17 02:44:07;;;;;;;0.83;0.73;;;;;;;;;;10579685;27;20479;-76
2024/01/17 02:49:14;;;;;;;4.07;1.90;;;;;;;;;;10574880;27;20062;-75
2024/01/17 02:54:18;;;;;;;3.87;1.40;;;;;;;;;;10581001;27;20043;-75
2024/01/17 02:59:21;;;;;;;4.70;2.20;;;;;;;;;;10582127;27;20039;-75
2024/01/17 03:04:24;;;;;;;1.03;0.93;;;;;;;;;;10575327;27;20104;-76
2024/01/17 03:09:28;;;;;;;3.13;1.67;;;;;;;;;;10570262;27;20599;-75
2024/01/17 03:14:31;;;;;;;;;;;;;;;;;;10579339;27;20581;-75
2024/01/17 03:19:34;;;;;;;4.00;1.50;;;;;;;;;;10570665;27;19919;-76
2024/01/17 03:24:38;;;;;;;1.37;1.23;;;;;;;;;;10570412;27;20748;-75
2024/01/17 03:29:41;;;;;;;;;;;;;;;;;;10577049;27;20035;-75
2024/01/17 03:34:43;;;;;;;0.50;0.50;;;;;;;;;;10561150;27;19977;-75
2024/01/17 03:39:47;;;;;;;4.07;1.53;;;;;;;;;;10567727;27;20085;-75
2024/01/17 03:44:50;;;;;;;1.00;0.82;;;;;;;;;;10578014;27;20355;-76
2024/01/17 03:49:53;;;;;;;4.63;2.27;;;;;;;;;;10579158;27;20097;-75
2024/01/17 03:54:57;;;;;;;0.23;0.20;;;;;;;;;;10578389;27;20039;-74
2024/01/17 04:00:00;;;;;;;4.85;2.05;;;;;;;;;;10569362;27;20141;-75
2024/01/17 04:05:02;;;;;;;2.47;1.40;;;;;;;;;;10571782;27;20036;-75
2024/01/17 04:10:08;;;;;;;2.73;1.23;;;;;;;;;;10575491;27;20393;-75
2024/01/17 04:15:12;;;;;;;2.97;1.57;;;;;;;;;;10576679;27;20177;-75
2024/01/17 04:20:15;;;;;;;2.27;1.30;;;;;;;;;;10569986;27;20050;-74
2024/01/17 04:25:19;;;;;;;2.27;1.00;;;;;;;;;;10581149;27;20285;-74
2024/01/17 04:30:22;;;;;;;3.43;1.80;;;;;;;;;;10578171;27;20515;-76
2024/01/17 04:35:25;;;;;;;3.47;1.47;;;;;;;;;;10574638;27;20070;-74
2024/01/17 04:40:29;;;;;;;5.27;1.97;;;;;;;;;;10576111;27;20522;-74
2024/01/17 04:45:32;;;;;;;2.77;1.40;;;;;;;;;;10579638;27;20059;-74
2024/01/17 04:50:35;;;;;;;3.63;1.80;;;;;;;;;;10585914;27;20050;-74
2024/01/17 04:55:41;;;;;;;0.93;0.43;;;;;;;;;;10556675;27;20059;-74
2024/01/17 05:00:45;;;;;;;1.17;0.70;;;;;;;;;;10578274;27;20093;-74
2024/01/17 05:05:48;;;;;;;;;;;;;;;;;;10582464;27;20084;-74
2024/01/17 05:10:52;;;;;;;2.87;1.77;;;;;;;;;;10577446;27;20419;-74
2024/01/17 05:15:55;;;;;;;4.00;1.20;;;;;;;;;;10578602;27;20387;-74
2024/01/17 05:20:57;;;;;;;0.77;0.70;;;;;;;;;;10577037;27;20175;-74
2024/01/17 05:26:01;;;;;;;6.97;1.40;;;;;;;;;;10575536;27;20134;-75
2024/01/17 05:31:05;;;;;;;4.75;1.83;;;;;;;;;;10574744;27;20051;-74
2024/01/17 05:36:08;;;;;;;2.53;1.30;;;;;;;;;;10573805;27;20067;-75
2024/01/17 05:41:12;;;;;;;3.63;2.07;;;;;;;;;;10585781;27;20050;-76
2024/01/17 05:46:15;;;;;;;3.53;2.00;;;;;;;;;;10575438;27;20168;-76
2024/01/17 05:51:21;;;;;;;2.83;1.27;;;;;;;;;;10584958;27;22015;-74
2024/01/17 05:56:25;;;;;;;2.60;0.93;;;;;;;;;;10574386;27;20046;-74
2024/01/17 06:01:28;;;;;;;;;;;;;;;;;;10580984;27;20047;-75
2024/01/17 06:06:31;;;;;;;0.60;0.60;;;;;;;;;;10576297;27;19927;-73
2024/01/17 06:11:35;;;;;;;4.50;1.07;;;;;;;;;;10570023;27;20063;-75
2024/01/17 06:16:37;;;;;;;2.70;0.77;;;;;;;;;;10577353;27;20046;-74
2024/01/17 06:21:40;;;;;;;1.33;0.80;;;;;;;;;;10571779;27;20038;-76
2024/01/17 06:26:45;;;;;;;3.47;2.20;;;;;;;;;;10579161;27;20089;-76
2024/01/17 06:31:47;;;;;;;10.67;2.30;;;;;;;;;;10578017;27;20732;-75
2024/01/17 06:36:50;;;;;;;7.10;3.50;;;;;;;;;;10574926;27;20055;-75
2024/01/17 06:41:54;;;;;;;2.37;1.47;;;;;;;;;;10578143;27;20135;-74
2024/01/17 06:46:57;;;;;;;;;;;;;;;;;;10572048;27;20111;-75
2024/01/17 06:52:00;;;;;;;3.50;1.83;;;;;;;;;;10578828;27;19926;-75
2024/01/17 06:57:07;;;;;;;2.10;1.33;;;;;;;;;;10581627;27;20104;-74
2024/01/17 07:02:10;;;;;;;2.40;1.50;;;;;;;;;;10579416;27;20770;-75
2024/01/17 07:07:13;;;;;;;2.80;1.60;;;;;;;;;;10579390;27;20460;-74
2024/01/17 07:12:17;;;;;;;4.10;1.93;;;;;;;;;;10578943;27;20047;-74
2024/01/17 07:17:20;;;;;;;4.93;2.50;;;;;;;;;;10574661;27;20039;-75
2024/01/17 07:22:23;;;;;;;6.93;3.03;;;;;;;;;;10572358;27;20222;-74
2024/01/17 07:27:27;;;;;;;4.87;2.33;;;;;;;;;;10570880;27;20111;-75
2024/01/17 07:32:30;;;;;;;8.10;3.92;;;;;;;;;;10571540;27;20482;-75
2024/01/17 07:37:33;;;;;;;3.73;1.97;;;;;;;;;;10577830;27;20409;-73
2024/01/17 07:42:37;;;;;;;10.00;3.33;;;;;;;;;;10575452;27;20166;-75
2024/01/17 07:47:40;;;;;;;;;;;;;;;;;;10573573;27;20043;-76
2024/01/17 07:52:43;;;;;;;8.53;3.57;;;;;;;;;;10566039;27;19935;-74
2024/01/17 07:57:46;;;;;;;5.77;2.23;;;;;;;;;;10574579;27;20393;-74
2024/01/17 08:02:49;;;;;;;1.27;0.85;;;;;;;;;;10580709;27;20039;-74
2024/01/17 08:07:52;;;;;;;5.57;2.70;;;;;;;;;;10581650;27;20399;-75
2024/01/17 08:12:56;;;;;;;8.53;3.40;;;;;;;;;;10576212;27;20104;-75
2024/01/17 08:17:59;;;;;;;7.90;3.00;;;;;;;;;;10574422;27;20122;-75
2024/01/17 08:23:02;;;;;;;6.57;2.80;;;;;;;;;;10577895;27;20040;-75
2024/01/17 08:28:06;;;;;;;0.93;0.65;;;;;;;;;;10578429;27;20047;-74
2024/01/17 08:37:46;;;;;;;0.73;0.47;;;;;;;;;;10560502;27;20973;-74
2024/01/17 08:42:49;;;;;;;5.50;2.72;;;;;;;;;;10525050;28;20122;-73
2024/01/17 08:47:52;;;;;;;6.90;2.30;;;;;;;;;;10540621;27;20056;-75
2024/01/17 08:52:56;;;;;;;1.63;1.50;;;;;;;;;;10532660;28;20048;-74
2024/01/17 08:57:59;;;;;;;11.27;3.40;;;;;;;;;;10530709;28;20051;-75
2024/01/17 09:03:02;;;;;;;2.08;1.30;;;;;;;;;;10526278;28;20069;-74
2024/01/17 09:08:07;;;;;;;2.15;1.45;;;;;;;;;;10529992;28;20084;-75
2024/01/17 09:13:13;;;;;;;8.75;2.78;;;;;;;;;;10521699;28;20044;-73
2024/01/17 09:18:17;;;;;;;2.93;1.40;;;;;;;;;;10529000;28;20604;-75
2024/01/17 09:23:22;;;;;;;5.20;2.13;;;;;;;;;;10531554;28;20374;-73
2024/01/17 09:28:24;;;;;;;2.67;1.30;;;;;;;;;;10530555;28;20044;-74
2024/01/17 09:33:27;;;;;;;7.25;1.77;;;;;;;;;;10529050;28;20036;-74
2024/01/17 09:38:32;;;;;;;6.60;2.13;;;;;;;;;;10531793;28;20059;-75
2024/01/17 09:43:34;;;;;;;;;;;;;;;;;;10532845;28;20068;-74
2024/01/17 09:48:37;;;;;;;4.13;1.70;;;;;;;;;;10508563;28;19928;-73
2024/01/17 09:53:44;;;;;;;2.90;1.47;;;;;;;;;;10509183;28;20421;-74
2024/01/17 09:58:48;;;;;;;1.40;1.02;;;;;;;;;;10504271;28;20058;-74
2024/01/17 10:03:52;;;;;;;8.20;2.73;;;;;;;;;;10505563;28;20044;-73
2024/01/17 10:08:56;;;;;;;5.97;2.60;;;;;;;;;;10504873;28;20363;-74
2024/01/17 10:13:59;;;;;;;;;;;;;;;;;;10504940;28;20059;-73
2024/01/17 10:19:03;;;;;;;2.70;1.48;;;;;;;;;;10500652;28;19935;-75
2024/01/17 10:24:09;;;;;;;4.60;2.53;;;;;;;;;;10497614;28;20382;-75
2024/01/17 10:29:11;;;;;;;4.22;2.72;;;;;;;;;;10507254;28;20051;-74
2024/01/17 10:34:14;;;;;;;3.83;1.77;;;;;;;;;;10503792;28;20044;-74
2024/01/17 10:39:21;;;;;;;5.97;2.97;;;;;;;;;;10492652;28;20067;-74
2024/01/17 10:44:25;;;;;;;3.13;1.77;;;;;;;;;;10502310;28;20134;-75
2024/01/17 10:49:27;;;;;;;4.80;2.47;;;;;;;;;;10508912;28;20400;-76
2024/01/17 10:54:34;;;;;;;5.32;2.67;;;;;;;;;;10505227;28;20412;-75
2024/01/17 10:59:39;;;;;;;5.78;2.45;;;;;;;;;;10495768;28;20048;-75
2024/01/17 11:04:43;;;;;;;5.32;2.60;;;;;;;;;;10497217;28;20127;-74
2024/01/17 11:09:46;;;;;;;;;;;;;;;;;;10493916;28;20044;-75
2024/01/17 11:14:51;;;;;;;8.32;2.00;;;;;;;;;;10509759;28;20018;-75
2024/01/17 11:19:55;;;;;;;9.13;3.95;;;;;;;;;;10517608;27;20758;-74
2024/01/17 11:25:03;;;;;;;8.13;3.75;;;;;;;;;;10512525;28;20051;-75
2024/01/17 11:30:11;;;;;;;10.73;5.90;;;;;;;;;;10497041;28;20044;-75
2024/01/17 11:35:29;;;;;;;5.88;2.92;;;;;;;;;;10497732;28;20131;-74
2024/01/17 11:40:32;;;;;;;7.65;3.17;;;;;;;;;;10505683;28;20692;-74
2024/01/17 11:45:38;;;;;;;4.60;2.35;;;;;;;;;;10502391;28;20066;-74
2024/01/17 11:50:42;;;;;;;8.30;4.30;;;;;;;;;;10503224;28;20973;-73
2024/01/17 11:55:50;;;;;;;9.95;4.60;;;;;;;;;;10492430;28;20050;-73
2024/01/17 12:00:54;;;;;;;7.47;3.75;;;;;;;;;;10500116;28;20036;-74
2024/01/17 12:05:57;;;;;;;9.27;4.22;;;;;;;;;;10500536;28;20059;-76
2024/01/17 12:11:00;;;;;;;5.32;2.80;;;;;;;;;;10503298;28;20079;-75
2024/01/17 12:16:05;;;;;;;13.63;4.53;;;;;;;;;;10506066;28;20087;-75
2024/01/17 12:21:08;;;;;;;5.75;2.92;;;;;;;;;;10504845;28;20040;-74
2024/01/17 12:26:11;;;;;;;9.00;5.13;;;;;;;;;;10498333;28;20605;-75
2024/01/17 12:31:16;;;;;;;10.20;4.03;;;;;;;;;;10497532;28;20048;-74
2024/01/17 12:36:18;;;;;;;6.05;2.45;;;;;;;;;;10503364;28;20494;-74
2024/01/17 12:41:21;;;;;;;10.35;3.08;;;;;;;;;;10483537;28;20409;-75
2024/01/17 12:46:26;;;;;;;3.87;1.77;;;;;;;;;;10505577;28;20048;-74
2024/01/17 12:51:31;;;;;;;7.05;3.05;;;;;;;;;;10491678;28;20048;-75
2024/01/17 12:56:35;;;;;;;5.80;2.25;;;;;;;;;;10495745;28;20056;-75
2024/01/17 13:01:42;;;;;;;9.20;4.30;;;;;;;;;;10502933;28;20052;-74
2024/01/17 13:06:45;;;;;;;7.38;2.58;;;;;;;;;;10502609;28;20033;-75
2024/01/17 13:11:49;;;;;;;4.05;2.15;;;;;;;;;;10483769;28;20043;-75
2024/01/17 13:16:54;;;;;;;4.88;2.53;;;;;;;;;;10496012;28;20053;-73
2024/01/17 13:21:56;;;;;;;2.45;1.08;;;;;;;;;;10501543;28;20047;-74
2024/01/17 13:26:59;;;;;;;7.40;3.58;;;;;;;;;;10503263;28;20626;-75
2024/01/17 13:32:04;;;;;;;8.98;2.40;;;;;;;;;;10504992;28;20063;-76
2024/01/17 13:37:07;;;;;;;7.97;3.00;;;;;;;;;;10515595;28;20082;-74
2024/01/17 13:42:09;;;;;;;2.90;1.88;;;;;;;;;;10499826;28;20058;-74
2024/01/17 13:47:13;;;;;;;3.17;1.88;;;;;;;;;;10503572;28;20032;-74
2024/01/17 13:52:20;;;;;;;3.67;1.85;;;;;;;;;;10509320;28;20044;-75
2024/01/17 13:57:23;;;;;;;6.18;2.33;;;;;;;;;;10507552;28;20461;-74
2024/01/17 14:02:27;;;;;;;2.03;1.27;;;;;;;;;;10504201;28;20051;-74
2024/01/17 14:07:29;;;;;;;2.78;1.48;;;;;;;;;;10499283;28;20052;-74
2024/01/17 14:12:33;;;;;;;5.47;1.55;;;;;;;;;;10503064;28;20051;-74
2024/01/17 14:17:37;;;;;;;5.20;1.65;;;;;;;;;;10506830;28;20033;-73
2024/01/17 14:22:40;;;;;;;4.22;1.77;;;;;;;;;;10501533;28;20406;-74
2024/01/17 14:27:42;;;;;;;3.88;1.02;;;;;;;;;;10497922;28;20189;-75
2024/01/17 14:32:46;;;;;;;5.50;2.55;;;;;;;;;;10498068;28;20040;-73
2024/01/17 14:37:49;;;;;;;;;;;;;;;;;;10505056;28;20043;-74
2024/01/17 14:42:52;;;;;;;4.72;1.45;;;;;;;;;;10498119;28;19928;-74
2024/01/17 14:47:56;;;;;;;4.93;2.50;;;;;;;;;;10496576;28;20040;-74
2024/01/17 14:53:00;;;;;;;2.60;1.23;;;;;;;;;;10487150;28;20513;-75
2024/01/17 14:58:04;;;;;;;3.17;1.63;;;;;;;;;;10495681;28;20586;-75
2024/01/17 15:03:08;;;;;;;4.68;1.67;;;;;;;;;;10500008;28;20043;-74
2024/01/17 15:08:11;;;;;;;3.60;1.67;;;;;;;;;;10503821;28;20032;-75
2024/01/17 15:13:13;;;;;;;4.60;2.10;;;;;;;;;;10497085;28;20050;-74
2024/01/17 15:18:17;;;;;;;2.35;1.42;;;;;;;;;;10499680;28;20146;-73
2024/01/17 15:23:20;;;;;;;4.00;1.58;;;;;;;;;;10493669;28;20055;-74
2024/01/17 15:28:23;;;;;;;3.05;1.85;;;;;;;;;;10500096;28;20048;-73
2024/01/17 15:33:27;;;;;;;2.55;1.30;;;;;;;;;;10495865;28;20134;-75
2024/01/17 15:38:31;;;;;;;3.28;1.17;;;;;;;;;;10495644;28;20124;-74
2024/01/17 15:43:34;;;;;;;2.63;0.85;;;;;;;;;;10497280;28;20135;-75
2024/01/17 15:48:38;;;;;;;4.00;1.52;;;;;;;;;;10487339;28;20125;-77
2024/01/17 15:53:43;;;;;;;;;;;;;;;;;;10477656;28;20044;-75
2024/01/17 15:58:47;;;;;;;;;;;;;;;;;;10494481;28;20369;-75
2024/01/17 16:03:51;;;;;;;7.13;2.88;;;;;;;;;;10495392;28;20126;-74
2024/01/17 16:08:53;;;;;;;2.97;1.77;;;;;;;;;;10497002;28;20035;-75
2024/01/17 16:13:56;;;;;;;2.60;1.42;;;;;;;;;;10494847;28;20472;-75
2024/01/17 16:19:00;;;;;;;5.75;1.83;;;;;;;;;;10490275;28;20044;-75
2024/01/17 16:24:03;;;;;;;4.53;1.95;;;;;;;;;;10481515;28;20051;-74
2024/01/17 16:29:06;;;;;;;6.30;1.90;;;;;;;;;;10497738;28;20036;-74
2024/01/17 16:34:11;;;;;;;1.42;0.73;;;;;;;;;;10515626;28;20066;-74
2024/01/17 16:39:17;;;;;;;3.25;1.73;;;;;;;;;;10513916;28;20047;-73
2024/01/17 16:44:20;;;;;;;3.80;2.38;;;;;;;;;;10513700;28;20777;-74
2024/01/17 16:49:24;;;;;;;4.88;2.08;;;;;;;;;;10521530;28;20493;-75
2024/01/17 16:54:27;;;;;;;1.33;0.88;;;;;;;;;;10523289;28;20121;-74
2024/01/17 16:59:31;;;;;;;4.63;2.10;;;;;;;;;;10520004;28;20136;-75
2024/01/17 17:04:35;;;;;;;1.38;1.25;;;;;;;;;;10521994;28;20028;-74
2024/01/17 17:09:38;;;;;;;4.32;1.80;;;;;;;;;;10522382;28;20032;-74
2024/01/17 17:14:40;;;;;;;3.88;1.05;;;;;;;;;;10523802;28;20047;-74
2024/01/17 17:19:45;;;;;;;6.32;2.05;;;;;;;;;;10525177;28;20085;-74
2024/01/17 17:24:48;;;;;;;1.98;1.15;;;;;;;;;;10526577;28;20071;-74
2024/01/17 17:29:51;;;;;;;4.38;1.77;;;;;;;;;;10519153;28;20296;-74
2024/01/17 17:34:55;;;;;;;5.00;1.87;;;;;;;;;;10529279;28;20421;-74
2024/01/17 17:39:59;;;;;;;1.98;1.00;;;;;;;;;;10522967;28;20083;-75
2024/01/17 17:45:02;;;;;;;2.25;0.80;;;;;;;;;;10527700;28;20044;-76
2024/01/17 17:50:11;;;;;;;5.27;2.33;;;;;;;;;;10525375;28;20071;-74
2024/01/17 17:55:14;;;;;;;2.15;1.65;;;;;;;;;;10523304;28;20098;-74
2024/01/17 18:00:20;;;;;;;4.75;2.38;;;;;;;;;;10523332;28;20235;-75
2024/01/17 18:05:24;;;;;;;4.82;2.08;;;;;;;;;;10523233;28;20040;-75
2024/01/17 18:10:26;;;;;;;;;;;;;;;;;;10535358;28;20101;-74
2024/01/17 18:15:29;;;;;;;6.28;2.92;;;;;;;;;;10520825;28;20135;-74
2024/01/17 18:20:34;;;;;;;3.17;1.83;;;;;;;;;;10525095;28;20113;-74
2024/01/17 18:25:37;;;;;;;7.43;2.90;;;;;;;;;;10505140;28;20126;-75
2024/01/17 18:30:40;;;;;;;10.75;3.17;;;;;;;;;;10525426;28;20567;-75
2024/01/17 18:35:44;;;;;;;3.53;1.67;;;;;;;;;;10524118;28;20047;-74
2024/01/17 18:40:47;;;;;;;;;;;;;;;;;;10520374;28;20054;-74
2024/01/17 18:45:50;;;;;;;3.80;2.03;;;;;;;;;;10505825;28;19920;-75
2024/01/17 18:50:54;;;;;;;2.53;1.25;;;;;;;;;;10501122;28;20054;-73
2024/01/17 18:55:56;;;;;;;;;;;;;;;;;;10498760;28;20040;-75
2024/01/17 19:00:59;;;;;;;5.35;2.63;;;;;;;;;;10505196;28;19928;-75
2024/01/17 19:06:04;;;;;;;1.83;1.10;;;;;;;;;;10510550;28;20036;-74
2024/01/17 19:11:07;;;;;;;1.40;0.75;;;;;;;;;;10506485;28;20048;-74
2024/01/17 19:16:10;;;;;;;2.78;1.55;;;;;;;;;;10497801;28;20048;-74
2024/01/17 19:21:14;;;;;;;2.45;1.08;;;;;;;;;;10505633;28;20489;-74
2024/01/17 19:26:17;;;;;;;0.95;0.65;;;;;;;;;;10502165;28;20085;-74
2024/01/17 19:31:21;;;;;;;0.52;0.45;;;;;;;;;;10501835;28;20129;-73
2024/01/17 19:36:25;;;;;;;5.90;1.95;;;;;;;;;;10504879;28;20072;-75
2024/01/17 19:41:28;;;;;;;1.25;0.93;;;;;;;;;;10500674;28;20093;-75
2024/01/17 19:46:31;;;;;;;2.47;1.02;;;;;;;;;;10503065;28;20127;-75
2024/01/17 19:51:35;;;;;;;2.15;1.33;;;;;;;;;;10505929;28;20060;-75
2024/01/17 19:56:38;;;;;;;1.42;0.68;;;;;;;;;;10503187;28;20612;-76
2024/01/17 20:01:41;;;;;;;2.10;0.95;;;;;;;;;;10499517;28;20116;-76
2024/01/17 20:06:45;;;;;;;1.42;1.20;;;;;;;;;;10499118;28;20036;-73
2024/01/17 20:11:48;;;;;;;3.22;1.58;;;;;;;;;;10497750;28;20193;-72
2024/01/17 20:16:51;;;;;;;2.38;1.10;;;;;;;;;;10502617;28;20044;-72
2024/01/17 20:21:54;;;;;;;2.70;1.52;;;;;;;;;;10500507;28;20206;-70
2024/01/17 20:26:57;;;;;;;1.58;0.80;;;;;;;;;;10501257;28;20036;-71
2024/01/17 20:32:00;;;;;;;1.38;0.98;;;;;;;;;;10503451;28;20048;-72
2024/01/17 20:37:03;;;;;;;3.50;1.60;;;;;;;;;;10499400;28;20047;-71
2024/01/17 20:42:06;;;;;;;2.42;1.58;;;;;;;;;;10496338;28;20131;-72
2024/01/17 20:47:09;;;;;;;2.03;0.88;;;;;;;;;;10501856;28;20786;-71
2024/01/17 20:52:13;;;;;;;1.67;1.40;;;;;;;;;;10508080;28;20129;-70
2024/01/17 20:57:15;;;;;;;;;;;;;;;;;;10493886;28;20532;-71
2024/01/17 21:02:18;;;;;;;1.00;0.68;;;;;;;;;;10494385;28;20053;-74
2024/01/17 21:07:22;;;;;;;0.60;0.57;;;;;;;;;;10502681;28;20119;-75
2024/01/17 21:12:28;;;;;;;0.95;0.77;;;;;;;;;;10496011;28;20036;-80
2024/01/17 21:17:31;;;;;;;0.70;0.70;;;;;;;;;;10499621;28;20396;-75
2024/01/17 21:22:35;;;;;;;0.80;0.40;;;;;;;;;;10477592;28;20036;-74
2024/01/17 21:27:39;;;;;;;1.15;0.60;;;;;;;;;;10499769;28;20076;-74
2024/01/17 21:32:41;;;;;;;0.57;0.40;;;;;;;;;;10483471;28;20062;-75
2024/01/17 21:37:46;;;;;;;2.72;0.70;;;;;;;;;;10500714;28;20105;-76
2024/01/17 21:42:49;;;;;;;2.03;0.90;;;;;;;;;;10496489;28;20044;-75
2024/01/17 21:47:51;;;;;;;0.90;0.60;;;;;;;;;;10485430;28;20043;-76
2024/01/17 21:52:56;;;;;;;1.50;1.02;;;;;;;;;;10507394;28;20429;-75
2024/01/17 21:57:58;;;;;;;2.03;0.82;;;;;;;;;;10508493;28;20036;-75
2024/01/17 22:03:02;;;;;;;1.47;0.57;;;;;;;;;;10501149;28;20063;-75
2024/01/17 22:08:06;;;;;;;1.20;0.30;;;;;;;;;;10508295;28;20039;-75
2024/01/17 22:13:09;;;;;;;0.95;0.65;;;;;;;;;;10503142;28;20121;-75
2024/01/17 22:18:12;;;;;;;1.20;0.90;;;;;;;;;;10504720;28;20040;-74
2024/01/17 22:23:16;;;;;;;2.30;0.52;;;;;;;;;;10502088;28;20058;-75
2024/01/17 22:28:18;;;;;;;1.02;0.50;;;;;;;;;;10506926;28;20032;-74
2024/01/17 22:33:21;;;;;;;1.80;0.65;;;;;;;;;;10503358;28;20101;-75
2024/01/17 22:38:25;;;;;;;1.30;0.38;;;;;;;;;;10500097;28;20040;-74
2024/01/17 22:43:28;;;;;;;0.60;0.40;;;;;;;;;;10501487;28;20518;-73
2024/01/17 22:48:31;;;;;;;1.10;0.40;;;;;;;;;;10506827;28;20203;-75
2024/01/17 22:53:35;;;;;;;0.40;0.40;;;;;;;;;;10504140;28;20101;-75
2024/01/17 22:58:38;;;;;;;1.40;0.50;;;;;;;;;;10506572;28;20456;-75
2024/01/17 23:03:42;;;;;;;0.70;0.60;;;;;;;;;;10508561;28;20032;-74
2024/01/17 23:08:46;;;;;;;0.80;0.35;;;;;;;;;;10506503;28;20036;-75
2024/01/17 23:13:49;;;;;;;;;;;;;;;;;;10506111;28;20516;-75
2024/01/17 23:18:52;;;;;;;0.47;0.30;;;;;;;;;;10485800;28;19940;-74
2024/01/17 23:23:56;;;;;;;0.30;0.30;;;;;;;;;;10502188;28;20044;-74
2024/01/17 23:28:59;;;;;;;;;;;;;;;;;;10500192;28;20042;-74
2024/01/17 23:34:02;;;;;;;0.35;0.35;;;;;;;;;;10500322;28;19926;-75
2024/01/17 23:39:06;;;;;;;0.90;0.30;;;;;;;;;;10499915;28;20048;-76
2024/01/17 23:44:09;;;;;;;1.95;0.30;;;;;;;;;;10503747;28;20584;-75
2024/01/17 23:49:12;;;;;;;0.30;0.30;;;;;;;;;;10497133;28;20154;-75
2024/01/17 23:54:16;;;;;;;0.13;0.13;;;;;;;;;;10506875;28;20036;-74
2024/01/17 23:59:19;;;;;;;0.50;0.30;;;;;;;;;;10506759;28;20044;-76
